• Join FlightAware (Why Join?)
  • Login
  • US Flag 
11:33PM EDT


 

Airport Tracker/Info


-or-


 

Live Flight TrackerFlight Track Log ✈ DAL3682 ✈ 23-Apr-2013 ✈ KCVG - KMSP

Flight Track Log - Related Links

Times and Time Zones

All times are in EDT time to prevent confusion due to time zone crossing. See the DAL3682 flight status page for this flight to view local times or setup timezone preferences in your user account.

Time Position Orientation Groundspeed Altitude Reporting Facility
EDT Latitude Longitude Course Direction KTS MPH feet Rate Location/Type
11:41AM 39.0500 -84.6833 270° West 165 190 1,400  Level Cincinnati TRACON
11:42AM 39.0500 -84.7000 270° West 168 193 2,100 1,380 Climbing Cincinnati TRACON
11:43AM 39.0500 -84.7833 270° West 238 274 3,200 1,980 Climbing Cincinnati TRACON
11:44AM 39.0500 -84.8667 270° West 251 289 6,100 2,640 Climbing Cincinnati TRACON
11:45AM 39.0503 -84.9692 270° West 259 298 8,900 2,160 Climbing Indianapolis Center
11:46AM 39.0842 -85.0672 294° West 290 334 10,800 1,740 Climbing Indianapolis Center
11:47AM 39.1236 -85.1725 296° West 318 366 12,600 1,800 Climbing Indianapolis Center
11:48AM 39.1656 -85.2833 296° West 338 389 14,600 1,920 Climbing Indianapolis Center
11:49AM 39.2078 -85.3950 296° West 334 384 16,600 1,620 Climbing Indianapolis Center
11:50AM 39.2778 -85.5108 308° West 347 399 18,000 1,320 Climbing Indianapolis Center
11:51AM 39.3414 -85.6097 310° West 361 415 19,400 1,260 Climbing Indianapolis Center
11:52AM 39.4061 -85.7136 309° West 370 426 20,700 1,260 Climbing Indianapolis Center
11:53AM 39.4728 -85.8167 310° West 372 428 22,100 1,140 Climbing Indianapolis Center
11:54AM 39.5375 -85.9208 309° West 372 428 23,100 1,020 Climbing Indianapolis Center
11:55AM 39.6036 -86.0261 309° West 374 430 24,300 1,080 Climbing Indianapolis Center
11:56AM 39.6675 -86.1286 309° West 370 426 25,400 900 Climbing Indianapolis Center
11:57AM 39.7319 -86.2322 309° West 369 425 26,200 720 Climbing Indianapolis Center
11:58AM 39.8083 -86.3583 308° West 369 425 26,900 600 Climbing Indianapolis Center
11:59AM 39.8686 -86.4683 306° West 372 428 27,500 660 Climbing Indianapolis Center
12:00PM 39.9286 -86.5811 305° West 376 433 28,300 720 Climbing Indianapolis Center
12:01PM 39.9875 -86.6919 305° West 373 429 29,000 780 Climbing Indianapolis Center
12:02PM 40.0733 -86.7650 327° Northwest 381 438 29,900 780 Climbing Indianapolis Center
12:03PM 40.1447 -86.8094 335° Northwest 382 440 30,400 720 Climbing Chicago Center
12:04PM 40.2389 -86.8686 334° Northwest 377 434 31,200 660 Climbing Chicago Center
12:05PM 40.3314 -86.9264 335° Northwest 372 428 31,800 360 Climbing Chicago Center
12:06PM 40.4253 -86.9858 334° Northwest 375 432 32,000 60 Climbing Chicago Center
12:07PM 40.5203 -87.0469 334° Northwest 382 440 32,000  Level Chicago Center
12:08PM 40.6406 -87.1128 337° Northwest 392 451 32,000  Level Chicago Center
12:09PM 40.7428 -87.1664 338° Northwest 396 456 32,000  Level Chicago Center
12:10PM 40.8472 -87.2197 339° North 401 461 32,000  Level Chicago Center
12:11PM 40.9503 -87.2747 338° Northwest 403 464 32,000  Level Chicago Center
12:12PM 41.0564 -87.3297 339° North 407 468 32,000  Level Chicago Center
12:13PM 41.1822 -87.3942 339° North 409 471 32,000  Level Chicago Center
12:14PM 41.2875 -87.4497 338° Northwest 410 472 32,000  Level Chicago Center
12:15PM 41.3922 -87.5072 338° Northwest 412 474 32,000  Level Chicago Center
12:16PM 41.4972 -87.5622 339° North 411 473 32,000  Level Chicago Center
12:17PM 41.6022 -87.6194 338° Northwest 413 475 32,000  Level Chicago Center
12:18PM 41.7300 -87.6864 339° North 417 480 32,000  Level Chicago Center
12:20PM 41.8364 -87.7439 338° Northwest 417 480 32,000  Level Chicago Center
12:21PM 41.9433 -87.7997 339° North 418 481 32,000  Level Chicago Center
12:22PM 42.0508 -87.8581 338° Northwest 420 483 32,000  Level Chicago Center
12:23PM 42.1581 -87.9181 337° Northwest 420 483 32,000  Level Chicago Center
12:24PM 42.2925 -87.9775 342° North 427 491 32,000  Level Chicago Center
12:25PM 42.4142 -88.0236 344° North 432 497 32,000  Level Chicago Center
12:26PM 42.5308 -88.0650 345° North 433 498 32,000  Level Chicago Center
12:27PM 42.6464 -88.1100 344° North 431 496 32,000  Level Chicago Center
12:28PM 42.7631 -88.1528 345° North 432 497 32,000  Level Chicago Center
12:29PM 42.8781 -88.1956 345° North 429 494 32,000  Level Chicago Center
12:30PM 42.9931 -88.2378 345° North 427 491 32,000  Level Chicago Center
12:31PM 43.1169 -88.3036 339° North 404 465 32,000  Level Chicago Center
12:32PM 43.2178 -88.3736 333° Northwest 403 464 32,000  Level Chicago Center
12:33PM 43.3197 -88.4406 334° Northwest 404 465 32,000  Level Chicago Center
12:34PM 43.4053 -88.5322 322° Northwest 389 448 32,000  Level Chicago Center
12:35PM 43.4606 -88.6503 303° West 365 420 32,000  Level Chicago Center
12:36PM 43.5150 -88.7622 304° West 351 404 32,000  Level Chicago Center
12:37PM 43.5692 -88.8769 303° West 355 409 32,000  Level Chicago Center
12:38PM 43.6236 -88.9917 303° West 355 409 32,000  Level Chicago Center
12:39PM 43.6681 -89.0858 303° West 354 407 32,000  Level Minneapolis Center
12:40PM 43.7228 -89.2011 303° West 356 410 32,000  Level Minneapolis Center
12:41PM 43.7761 -89.3156 303° West 355 409 32,000  Level Minneapolis Center
12:42PM 43.8314 -89.4325 303° West 361 415 32,000  Level Minneapolis Center
12:43PM 43.8869 -89.5525 303° West 368 423 32,000  Level Minneapolis Center
12:44PM 43.9431 -89.6736 303° West 371 427 32,000  Level Minneapolis Center
12:45PM 44.0097 -89.8181 303° West 378 435 32,000  Level Minneapolis Center
12:46PM 44.0683 -89.9425 303° West 382 440 32,000  Level Minneapolis Center
12:47PM 44.1325 -90.0633 307° West 388 447 32,000  Level Minneapolis Center
12:48PM 44.1994 -90.1836 308° West 391 450 32,000 -180 Level Minneapolis Center
12:49PM 44.2528 -90.3114 300° West 383 441 31,700 -720 Descending Minneapolis Center
12:50PM 44.3086 -90.4442 300° West 393 452 30,600 -1,080 Descending Minneapolis Center
12:51PM 44.3653 -90.5828 300° West 407 468 29,500 -1,200 Descending Minneapolis Center
12:52PM 44.4308 -90.7397 300° West 399 459 28,200 -1,200 Descending Minneapolis Center
12:53PM 44.4836 -90.8678 300° West 385 443 27,100 -1,080 Descending Minneapolis Center
12:54PM 44.5358 -90.9972 300° West 374 430 26,000 -1,080 Descending Minneapolis Center
12:55PM 44.5861 -91.1189 300° West 366 421 24,900 -1,080 Descending Minneapolis Center
12:56PM 44.6344 -91.2406 299° West 362 417 23,800 -1,260 Descending Minneapolis Center
12:57PM 44.6836 -91.3628 300° West 360 414 22,400 -1,440 Descending Minneapolis Center
12:58PM 44.7322 -91.4836 300° West 358 412 20,900 -1,500 Descending Minneapolis Center
12:59PM 44.7769 -91.5972 299° West 344 396 19,400 -1,620 Descending Minneapolis Center
01:00PM 44.8303 -91.7300 300° West 329 379 17,700 -1,560 Descending Minneapolis Center
01:01PM 44.8747 -91.8475 298° West 337 388 16,200 -1,560 Descending Minneapolis Center
01:02PM 44.9089 -91.9075 309° West 363 418 15,500 -1,620 Descending FAA TRACON SMA TRACON (SMA)
01:02PM 44.9239 -91.9469 298° West 366 421 15,000 -1,560 Descending FAA TRACON SMA TRACON (SMA)
01:03PM 44.9392 -91.9861 299° West 371 427 14,500 -1,440 Descending FAA TRACON SMA TRACON (SMA)
01:03PM 44.9533 -92.0253 297° West 370 426 14,100 -1,500 Descending FAA TRACON SMA TRACON (SMA)
01:03PM 44.9725 -92.0736 299° West 368 423 13,500 -1,680 Descending FAA TRACON SMA TRACON (SMA)
01:04PM 44.9856 -92.1117 296° West 364 419 13,000 -1,380 Descending FAA TRACON SMA TRACON (SMA)
01:04PM 45.0017 -92.1492 301° West 359 413 12,600 -1,500 Descending FAA TRACON SMA TRACON (SMA)
01:04PM 45.0189 -92.1953 298° West 352 405 12,000 -1,680 Descending FAA TRACON SMA TRACON (SMA)
01:05PM 45.0314 -92.2314 296° West 343 395 11,500 -1,320 Descending FAA TRACON SMA TRACON (SMA)
01:05PM 45.0458 -92.2686 299° West 344 396 11,100 -900 Descending FAA TRACON SMA TRACON (SMA)
01:05PM 45.0475 -92.3167 273° West 333 383 10,900 -360 Descending FAA TRACON SMA TRACON (SMA)
01:06PM 45.0419 -92.3547 258° West 324 373 10,900  Level FAA TRACON SMA TRACON (SMA)
01:06PM 45.0364 -92.3928 258° West 320 368 10,900  Level FAA TRACON SMA TRACON (SMA)
01:06PM 45.0300 -92.4400 259° West 320 368 10,900  Level FAA TRACON SMA TRACON (SMA)
01:07PM 45.0186 -92.4750 245° Southwest 320 368 10,900  Level FAA TRACON SMA TRACON (SMA)
01:07PM 45.0025 -92.5047 233° Southwest 312 359 10,900 -300 Level FAA TRACON SMA TRACON (SMA)
01:07PM 44.9850 -92.5378 233° Southwest 284 327 10,700 -1,200 Descending FAA TRACON SMA TRACON (SMA)
01:08PM 44.9725 -92.5639 236° Southwest 267 307 10,100 -1,860 Descending FAA TRACON SMA TRACON (SMA)
01:08PM 44.9592 -92.5894 234° Southwest 261 300 9,500 -2,040 Descending FAA TRACON SMA TRACON (SMA)
01:08PM 44.9422 -92.6211 233° Southwest 260 299 8,800 -1,800 Descending FAA TRACON SMA TRACON (SMA)
01:09PM 44.9286 -92.6467 233° Southwest 263 303 8,300 -1,620 Descending FAA TRACON SMA TRACON (SMA)
01:09PM 44.9158 -92.6719 234° Southwest 261 300 7,700 -1,800 Descending FAA TRACON SMA TRACON (SMA)
01:09PM 44.8989 -92.7036 233° Southwest 261 300 7,100 -1,080 Descending FAA TRACON SMA TRACON (SMA)
01:10PM 44.8858 -92.7292 234° Southwest 262 302 7,000 -600 Descending FAA TRACON SMA TRACON (SMA)
01:10PM 44.8722 -92.7550 233° Southwest 263 303 6,700 -1,380 Descending FAA TRACON SMA TRACON (SMA)
01:10PM 44.8556 -92.7858 233° Southwest 259 298 6,100 -1,860 Descending FAA TRACON SMA TRACON (SMA)
01:11PM 44.8422 -92.8111 233° Southwest 257 296 5,500 -1,740 Descending FAA TRACON SMA TRACON (SMA)
01:11PM 44.8300 -92.8353 235° Southwest 253 291 5,000 -1,680 Descending FAA TRACON SMA TRACON (SMA)
01:11PM 44.8139 -92.8664 234° Southwest 253 291 4,400 -1,500 Descending FAA TRACON SMA TRACON (SMA)
01:12PM 44.8067 -92.8944 250° West 253 291 4,000 -780 Descending FAA TRACON SMA TRACON (SMA)
01:12PM 44.8006 -92.9222 253° West 246 283 3,900 -180 Descending FAA TRACON SMA TRACON (SMA)
01:12PM 44.7936 -92.9542 253° West 227 261 3,900 -780 Level FAA TRACON SMA TRACON (SMA)
01:13PM 44.7903 -92.9794 259° West 218 251 3,400 -1,380 Descending FAA TRACON SMA TRACON (SMA)
01:13PM 44.7964 -93.0025 290° West 210 242 3,000 -780 Descending FAA TRACON SMA TRACON (SMA)
01:13PM 44.8081 -93.0275 303° West 201 231 2,900 -300 Descending FAA TRACON SMA TRACON (SMA)